Shoreline, Washington
Current Conditions -  °F | °C
As of 3:53 PM on Saturday 20 Dec 2014 (Local Time) from KPAE Reporting Station
Light Rain Light Rain  
Wind Chill: 43°   Ceiling: 1200
Heat Index: 47°   Visibility: 2mi
Dew Point: 44°   Wind: 8mph
Humidity: 90%   Direction: 150°SSE
Pressure: 29.45"   Gusts: NA
Location:  47.7583°N, 122.295°W
Report Text: KPAE 202353Z 15007KT 2SM -RA BR BKN012 OVC014 08/07 A2945 RMK AO2 RAB33 SLP975 P0000 60002 T00830067 10083 20072 58026
Loading
Personal Weather Stations






























Interactive Weather Map New forecast layout! Learn more

10-Day Weather Forecast

Advertisements
Track Severe Weather on mobile